This is the latest recevied weather packets stored in our database for station/object KJ6LNH-1. If no packets are shown the sender has not sent any weather packets the latest 10 day(s).
| Time | Temp. | Humidity | Pressure | Rain* | Wind** | Luminosity | Snow |
|---|---|---|---|---|---|---|---|
| 1778215507 | 12.78° C | 87% | 1015.1 hPa | 0 mm | - | - | - |
| 1778215208 | 12.78° C | 87% | 1015.1 hPa | 0 mm | - | - | - |
| 1778214908 | 13.33° C | 86% | 1015.1 hPa | 0 mm | - | - | - |
| 1778214607 | 13.33° C | 85% | 1015 hPa | 0 mm | - | - | - |
| 1778214008 | 13.89° C | 83% | 1014.9 hPa | 0 mm | - | - | - |
| 1778213706 | 13.89° C | 83% | 1014.9 hPa | 0 mm | - | - | - |
| 1778213409 | 13.89° C | 83% | 1014.8 hPa | 0 mm | - | - | - |
| 1778212806 | 14.44° C | 81% | 1014.7 hPa | 0 mm | - | - | - |
| 1778212506 | 14.44° C | 81% | 1014.7 hPa | 0 mm | - | - | - |
| 1778212206 | 14.44° C | 80% | 1014.6 hPa | 0 mm | - | - | - |
| 1778211907 | 15° C | 79% | 1014.5 hPa | 0 mm | - | - | - |
| 1778211308 | 15° C | 77% | 1014.4 hPa | 0 mm | - | - | - |
| 1778211006 | 15.56° C | 77% | 1014.3 hPa | 0 mm | - | - | - |
| 1778210707 | 15.56° C | 77% | 1014.3 hPa | 0 mm | - | - | - |
| 1778210407 | 15.56° C | 76% | 1014.2 hPa | 0 mm | - | - | - |
| 1778210108 | 16.11° C | 76% | 1014.2 hPa | 0 mm | - | - | - |
| 1778209509 | 16.11° C | 77% | 1014.1 hPa | 0 mm | - | - | - |
| 1778209207 | 16.11° C | 77% | 1014.1 hPa | 0 mm | - | - | - |
| 1778208907 | 16.67° C | 76% | 1014.1 hPa | 0 mm | - | - | - |
| 1778208007 | 17.22° C | 73% | 1014.1 hPa | 0 mm | - | - | - |
| 1778207107 | 17.78° C | 72% | 1014 hPa | 0 mm | - | - | - |
| 1778206506 | 17.78° C | 70% | 1014 hPa | 0 mm | - | - | - |
| 1778205909 | 18.33° C | 68% | 1014.1 hPa | 0 mm | - | - | - |
| 1778205306 | 19.44° C | 64% | 1014.1 hPa | 0 mm | - | - | - |
| 1778205008 | 19.44° C | 63% | 1014 hPa | 0 mm | - | - | - |
* Rain latest hour (hover to see other rain measurements)
** Current wind speed in m/s (hover to see current wind gust speed)